createdAt,value
2023-04-02T04:27:47.171Z,3.79
2023-04-02T04:28:47.161Z,3.79
2023-04-02T04:29:47.145Z,3.70
2023-04-02T04:30:47.153Z,4.50
2023-04-02T04:34:47.098Z,4.00
2023-04-02T04:36:47.097Z,3.59
2023-04-02T04:38:47.049Z,3.50
2023-04-02T04:40:47.032Z,3.70
2023-04-02T04:41:47.026Z,3.79
2023-04-02T04:42:47.007Z,3.50
2023-04-02T04:43:47.002Z,4.40
2023-04-02T04:44:46.984Z,3.59
2023-04-02T04:45:47.055Z,4.69
2023-04-02T04:46:46.972Z,3.40
2023-04-02T04:47:46.984Z,3.40
2023-04-02T04:48:46.950Z,2.79
2023-04-02T04:49:46.942Z,3.79
2023-04-02T04:50:46.937Z,3.79
2023-04-02T04:51:46.917Z,2.90
2023-04-02T04:52:46.929Z,3.00
2023-04-02T04:53:46.898Z,3.29
2023-04-02T04:54:46.884Z,3.20
2023-04-02T04:55:46.871Z,3.40
2023-04-02T04:56:46.910Z,3.29
2023-04-02T04:57:46.850Z,3.20
2023-04-02T04:58:46.857Z,3.09
2023-04-02T04:59:46.827Z,3.29
2023-04-02T05:00:47.454Z,3.20
2023-04-02T05:01:46.884Z,4.30
2023-04-02T05:02:46.823Z,3.09
2023-04-02T05:03:46.782Z,2.79
2023-04-02T05:04:46.832Z,3.20
2023-04-02T05:05:46.770Z,4.19
2023-04-02T05:07:46.754Z,3.90
2023-04-02T05:08:46.765Z,3.20
2023-04-02T05:09:46.722Z,3.29
2023-04-02T05:10:46.712Z,4.00
2023-04-02T05:11:46.700Z,3.09
2023-04-02T05:12:46.691Z,2.90
2023-04-02T05:13:46.681Z,3.09
2023-04-02T05:14:46.671Z,3.00
2023-04-02T05:15:46.676Z,3.79
2023-04-02T05:16:46.649Z,6.80
2023-04-02T05:17:46.699Z,3.29
2023-04-02T05:18:46.628Z,3.59
2023-04-02T05:19:46.623Z,4.00
2023-04-02T05:20:46.611Z,3.70
2023-04-02T05:21:46.596Z,3.09
2023-04-02T05:22:46.595Z,5.19
2023-04-02T05:23:46.575Z,5.30
2023-04-02T05:24:46.612Z,3.90
2023-04-02T05:25:46.555Z,3.90
2023-04-02T05:26:46.545Z,3.70
2023-04-02T05:27:46.541Z,4.30
2023-04-02T05:28:46.544Z,3.50
2023-04-02T05:29:46.521Z,3.09
2023-04-02T05:30:46.517Z,3.00
2023-04-02T05:31:46.614Z,3.59
2023-04-02T05:32:46.548Z,2.79
2023-04-02T05:33:46.474Z,3.40
2023-04-02T05:34:46.459Z,6.09
2023-04-02T05:35:46.520Z,4.00
2023-04-02T05:36:46.462Z,4.09
2023-04-02T05:37:46.429Z,4.00
2023-04-02T05:38:46.437Z,4.90
2023-04-02T05:39:46.417Z,4.09
2023-04-02T05:40:46.425Z,3.40
2023-04-02T05:41:46.405Z,3.40
2023-04-02T05:42:46.381Z,3.70
2023-04-02T05:43:46.372Z,3.79
2023-04-02T05:44:46.359Z,3.40
2023-04-02T05:45:46.359Z,3.70
2023-04-02T05:46:46.375Z,4.09
2023-04-02T05:47:46.362Z,3.09
2023-04-02T05:48:46.333Z,3.90
2023-04-02T05:49:46.306Z,3.79
2023-04-02T05:50:46.301Z,3.79
2023-04-02T05:51:46.287Z,4.30
2023-04-02T05:52:46.286Z,3.00
2023-04-02T05:53:46.268Z,3.50
2023-04-02T05:54:46.270Z,3.40
2023-04-02T05:55:46.252Z,3.40
2023-04-02T05:56:46.274Z,3.79
2023-04-02T05:57:53.065Z,3.59
2023-04-02T05:59:46.203Z,4.00
2023-04-02T06:00:46.195Z,3.40
2023-04-02T06:01:46.203Z,4.09
2023-04-02T06:02:46.193Z,3.90
2023-04-02T06:03:46.298Z,4.40
2023-04-02T06:04:46.156Z,4.09
2023-04-02T06:05:46.138Z,4.09
2023-04-02T06:06:46.131Z,4.59
2023-04-02T06:07:46.116Z,4.09
2023-04-02T06:08:46.106Z,4.19
2023-04-02T06:09:46.109Z,3.79
2023-04-02T06:10:46.090Z,4.09
2023-04-02T06:11:46.082Z,3.90
2023-04-02T06:12:46.110Z,4.09
2023-04-02T06:13:46.058Z,3.59
2023-04-02T06:14:46.048Z,3.70
2023-04-02T06:15:47.784Z,3.50
2023-04-02T06:16:46.115Z,3.70
2023-04-02T06:17:46.060Z,3.70
2023-04-02T06:19:45.998Z,3.20
2023-04-02T06:20:45.986Z,3.40
2023-04-02T06:21:45.981Z,3.40
2023-04-02T06:22:46.163Z,3.79
2023-04-02T06:25:45.933Z,3.79
2023-04-02T06:26:45.931Z,3.50
2023-04-02T06:28:45.923Z,3.00
2023-04-02T06:29:45.904Z,3.20
2023-04-02T06:30:45.937Z,4.19
2023-04-02T06:31:47.338Z,2.79
2023-04-02T06:33:45.852Z,4.09
2023-04-02T06:34:45.844Z,3.79
2023-04-02T06:35:45.849Z,3.59
2023-04-02T06:37:45.820Z,3.29
2023-04-02T06:38:45.807Z,3.59
2023-04-02T06:39:45.792Z,4.50
2023-04-02T06:40:45.783Z,5.09
2023-04-02T06:41:45.769Z,4.50
2023-04-02T06:42:45.758Z,3.40
2023-04-02T06:43:45.750Z,3.40
2023-04-02T06:44:45.763Z,2.59
2023-04-02T06:45:45.740Z,3.00
2023-04-02T06:46:45.718Z,3.09
2023-04-02T06:47:45.769Z,2.79
2023-04-02T06:49:45.689Z,2.79
2023-04-02T06:50:45.674Z,3.00
2023-04-02T06:51:45.668Z,3.50
2023-04-02T06:52:45.666Z,3.40
2023-04-02T06:53:45.660Z,4.19
2023-04-02T06:54:45.685Z,6.30
2023-04-02T06:55:45.638Z,3.59
2023-04-02T06:56:45.614Z,3.59
2023-04-02T06:57:45.608Z,2.90
2023-04-02T06:58:45.596Z,3.70
2023-04-02T06:59:45.587Z,4.30
2023-04-02T07:00:45.597Z,3.20
2023-04-02T07:01:45.619Z,4.59
2023-04-02T07:02:45.605Z,2.90
2023-04-02T07:03:45.542Z,3.50
2023-04-02T07:04:45.592Z,2.90
2023-04-02T07:05:45.524Z,2.50
2023-04-02T07:06:45.503Z,4.00
2023-04-02T07:07:45.497Z,4.59
2023-04-02T07:08:45.484Z,3.20
2023-04-02T07:09:45.473Z,3.70
2023-04-02T07:10:45.465Z,3.79
2023-04-02T07:11:45.453Z,4.59
2023-04-02T07:12:45.447Z,2.79
2023-04-02T07:13:45.428Z,3.50
2023-04-02T07:15:45.457Z,3.40
2023-04-02T07:16:45.439Z,3.20
2023-04-02T07:17:45.399Z,3.59
2023-04-02T07:18:45.374Z,3.29
2023-04-02T07:19:45.363Z,3.59
2023-04-02T07:20:45.355Z,2.70
2023-04-02T07:21:45.344Z,3.50
2023-04-02T07:22:45.341Z,3.59
2023-04-02T07:23:45.324Z,3.40
2023-04-02T07:24:45.321Z,3.50
2023-04-02T07:25:45.308Z,3.79
2023-04-02T07:26:45.294Z,3.20
2023-04-02T07:27:45.282Z,3.50
2023-04-02T07:28:45.275Z,3.29
2023-04-02T07:29:45.264Z,3.59
2023-04-02T07:30:45.250Z,2.90
2023-04-02T07:31:45.280Z,2.79
2023-04-02T07:32:45.261Z,3.00
2023-04-02T07:33:45.219Z,3.40
2023-04-02T07:34:45.208Z,5.30
2023-04-02T07:35:45.211Z,3.29
2023-04-02T07:36:45.188Z,2.90
2023-04-02T07:37:45.175Z,2.90
2023-04-02T07:38:45.165Z,3.59
2023-04-02T07:39:45.158Z,3.50
2023-04-02T07:40:45.147Z,4.19
2023-04-02T07:41:45.144Z,4.00
2023-04-02T07:42:45.125Z,3.59
2023-04-02T07:43:45.113Z,4.50
2023-04-02T07:44:45.102Z,6.50
2023-04-02T07:45:45.092Z,10.30
2023-04-02T07:46:45.094Z,9.89
2023-04-02T07:47:45.128Z,8.69
2023-04-02T07:48:45.084Z,7.50
2023-04-02T07:49:45.052Z,8.39
2023-04-02T07:50:45.043Z,7.90
2023-04-02T07:51:45.030Z,8.19
2023-04-02T07:53:45.008Z,9.80
2023-04-02T07:54:45.001Z,9.60
2023-04-02T07:56:44.998Z,10.89
2023-04-02T07:57:46.796Z,11.89
2023-04-02T08:00:44.935Z,11.00
2023-04-02T08:01:44.969Z,9.80
2023-04-02T08:02:44.941Z,8.69
2023-04-02T08:03:45.055Z,9.10
2023-04-02T08:04:44.922Z,7.69
2023-04-02T08:05:44.912Z,7.80
2023-04-02T08:06:44.880Z,9.10
2023-04-02T08:10:44.833Z,11.60
2023-04-02T08:12:44.810Z,13.50
2023-04-02T08:13:44.797Z,12.69
2023-04-02T08:15:44.786Z,15.19
2023-04-02T08:16:44.820Z,13.89
2023-04-02T08:17:44.799Z,13.50
2023-04-02T08:18:44.747Z,13.30
2023-04-02T08:19:54.669Z,15.10
2023-04-02T08:20:45.772Z,12.00
2023-04-02T08:21:44.729Z,12.60
2023-04-02T08:23:44.701Z,12.10
2023-04-02T08:24:44.688Z,13.39
2023-04-02T08:25:44.680Z,12.69
2023-04-02T08:26:45.534Z,12.19
2023-04-02T08:29:44.635Z,12.30
2023-04-02T08:30:44.691Z,11.69
2023-04-02T08:31:44.622Z,13.00
2023-04-02T08:32:44.688Z,12.80
2023-04-02T08:34:44.583Z,13.39
2023-04-02T08:35:44.628Z,12.50
2023-04-02T08:36:44.603Z,12.10
2023-04-02T08:37:44.582Z,14.10
2023-04-02T08:38:44.547Z,13.69
2023-04-02T08:39:44.545Z,13.69
2023-04-02T08:40:44.522Z,12.00
2023-04-02T08:41:44.512Z,11.89
2023-04-02T08:42:44.504Z,9.50
2023-04-02T08:43:44.497Z,10.19
2023-04-02T08:44:44.481Z,11.50
2023-04-02T08:45:44.496Z,9.30
2023-04-02T08:46:44.463Z,8.69
2023-04-02T08:47:44.464Z,8.60
2023-04-02T08:48:44.433Z,8.39
2023-04-02T08:51:44.411Z,9.00
2023-04-02T08:52:44.439Z,9.10
2023-04-02T08:53:44.388Z,10.30
2023-04-02T08:54:44.375Z,10.10
2023-04-02T08:56:44.369Z,9.69
2023-04-02T08:57:44.347Z,9.00
2023-04-02T08:58:44.329Z,9.50
2023-04-02T09:00:44.310Z,9.10
2023-04-02T09:01:44.399Z,9.69
2023-04-02T09:02:44.314Z,8.50
2023-04-02T09:03:44.280Z,10.19
2023-04-02T09:04:44.282Z,9.80
2023-04-02T09:05:44.276Z,9.19
2023-04-02T09:06:44.247Z,8.39
2023-04-02T09:07:44.248Z,7.69
2023-04-02T09:08:44.252Z,6.90
2023-04-02T09:09:44.233Z,7.19
2023-04-02T09:10:44.230Z,7.30
2023-04-02T09:11:44.215Z,6.00
2023-04-02T09:12:44.190Z,6.80
2023-04-02T09:13:44.184Z,6.00
2023-04-02T09:14:44.168Z,4.80
2023-04-02T09:15:44.215Z,4.69
2023-04-02T09:16:44.153Z,4.80
2023-04-02T09:17:53.542Z,5.00
2023-04-02T09:18:45.241Z,6.40
2023-04-02T09:20:44.108Z,6.00
2023-04-02T09:21:44.105Z,5.90
2023-04-02T09:22:44.085Z,5.30
2023-04-02T09:23:44.110Z,6.59
2023-04-02T09:24:44.114Z,5.69
2023-04-02T09:25:48.457Z,7.30
2023-04-02T09:26:45.067Z,4.90
2023-04-02T09:27:44.051Z,5.69
2023-04-02T09:28:44.030Z,4.80
2023-04-02T09:30:44.011Z,6.59
2023-04-02T09:31:44.090Z,4.59
2023-04-02T09:33:43.992Z,6.50
2023-04-02T09:35:44.289Z,4.50
2023-04-02T09:36:43.949Z,5.80
2023-04-02T09:37:43.938Z,5.19
2023-04-02T09:38:43.934Z,4.90
2023-04-02T09:39:43.940Z,5.00
2023-04-02T09:40:43.943Z,5.80
2023-04-02T09:41:48.065Z,5.30
2023-04-02T09:42:44.910Z,5.50
2023-04-02T09:43:43.886Z,5.59
2023-04-02T09:44:43.872Z,4.80
2023-04-02T09:45:43.868Z,5.30
2023-04-02T09:46:43.876Z,6.50
2023-04-02T09:47:43.895Z,7.00
2023-04-02T09:48:43.930Z,6.69
2023-04-02T09:51:43.812Z,8.10
2023-04-02T09:52:43.795Z,6.69
2023-04-02T09:54:43.771Z,7.30
2023-04-02T09:55:43.761Z,7.40
2023-04-02T09:56:43.816Z,6.09
2023-04-02T09:57:43.762Z,6.90
2023-04-02T09:59:43.718Z,8.80
2023-04-02T10:00:43.937Z,7.90
2023-04-02T10:01:43.740Z,7.40
2023-04-02T10:02:43.702Z,8.60
2023-04-02T10:03:43.677Z,8.19
2023-04-02T10:04:43.763Z,7.80
2023-04-02T10:05:43.965Z,8.10
2023-04-02T10:06:43.650Z,6.40
2023-04-02T10:10:43.615Z,8.00
2023-04-02T10:11:46.641Z,8.50
2023-04-02T10:12:43.608Z,9.60
2023-04-02T10:13:43.574Z,8.89
2023-04-02T10:14:43.562Z,9.30
2023-04-02T10:16:43.607Z,8.10
2023-04-02T10:17:43.584Z,8.19
2023-04-02T10:19:43.509Z,7.69
2023-04-02T10:20:50.978Z,10.19
2023-04-02T10:21:44.514Z,12.69
2023-04-02T10:22:43.483Z,9.50
2023-04-02T10:23:43.489Z,8.30
2023-04-02T10:24:43.462Z,7.69
2023-04-02T10:26:43.445Z,8.00
2023-04-02T10:28:43.450Z,8.19
2023-04-02T10:30:43.458Z,9.39
2023-04-02T10:31:43.406Z,9.10
2023-04-02T10:32:43.443Z,10.19
2023-04-02T10:34:43.413Z,10.50
2023-04-02T10:35:43.370Z,10.39
2023-04-02T10:36:43.348Z,9.60
2023-04-02T10:37:43.337Z,10.00
2023-04-02T10:38:43.326Z,8.69
2023-04-02T10:39:43.316Z,10.10
2023-04-02T10:40:43.308Z,9.50
2023-04-02T10:41:43.303Z,9.00
2023-04-02T10:43:43.281Z,10.50
2023-04-02T10:44:43.293Z,10.80
2023-04-02T10:45:43.336Z,12.00
2023-04-02T10:47:43.237Z,9.39
2023-04-02T10:48:43.241Z,11.10
2023-04-02T10:50:43.208Z,9.50
2023-04-02T10:51:43.209Z,12.19
2023-04-02T10:52:43.188Z,9.89
2023-04-02T10:54:43.173Z,10.10
2023-04-02T10:55:43.176Z,10.69
2023-04-02T10:57:44.162Z,12.50
2023-04-02T10:58:43.135Z,12.30
2023-04-02T11:00:43.139Z,10.50
2023-04-02T11:02:43.173Z,10.39
2023-04-02T11:05:43.071Z,11.80
2023-04-02T11:07:43.048Z,9.50
2023-04-02T11:08:43.038Z,11.00
2023-04-02T11:09:43.030Z,11.89
2023-04-02T11:11:43.020Z,10.39
2023-04-02T11:12:42.999Z,9.80
2023-04-02T11:13:42.983Z,13.30
2023-04-02T11:14:42.976Z,10.60
2023-04-02T11:15:43.020Z,10.10
2023-04-02T11:16:44.435Z,11.00
2023-04-02T11:17:42.962Z,10.00
2023-04-02T11:20:42.915Z,12.89
2023-04-02T11:25:42.880Z,13.19
2023-04-02T11:26:42.868Z,12.10
2023-04-02T11:28:42.836Z,12.39
2023-04-02T11:32:43.184Z,10.80
2023-04-02T11:34:42.779Z,9.60
2023-04-02T11:35:42.831Z,9.19
2023-04-02T11:36:42.762Z,10.60
2023-04-02T11:37:42.746Z,11.89
2023-04-02T11:38:42.737Z,10.80
2023-04-02T11:39:42.731Z,11.30
2023-04-02T11:43:42.693Z,11.10
2023-04-02T11:44:42.684Z,13.50
2023-04-02T11:51:26.276Z,12.00
2023-04-02T11:53:25.555Z,13.60
2023-04-02T11:58:51.790Z,15.00
2023-04-02T11:59:51.607Z,14.50
2023-04-02T12:00:55.802Z,13.19
2023-04-02T12:06:36.802Z,11.39
2023-04-02T12:11:25.989Z,13.30
2023-04-02T12:13:25.976Z,12.39
2023-04-02T12:15:00.442Z,14.69
2023-04-02T12:15:25.950Z,12.39
2023-04-02T12:16:47.117Z,12.00
2023-04-02T12:20:47.810Z,13.50
2023-04-02T12:21:49.241Z,14.10
2023-04-02T12:22:49.208Z,13.10
2023-04-02T12:23:49.197Z,14.39
2023-04-02T12:25:49.180Z,12.30
2023-04-02T12:28:49.147Z,12.00
2023-04-02T12:30:49.136Z,12.80
2023-04-02T12:31:49.121Z,12.30
2023-04-02T12:32:49.149Z,13.00
2023-04-02T12:34:49.087Z,12.80
2023-04-02T12:35:49.124Z,13.69
2023-04-02T12:36:49.065Z,12.50
2023-04-02T12:37:49.087Z,13.30
2023-04-02T12:38:49.051Z,11.10
2023-04-02T12:39:49.039Z,12.80
2023-04-02T12:40:49.026Z,12.60
2023-04-02T12:41:49.022Z,12.30
2023-04-02T12:43:48.999Z,13.39
2023-04-02T12:44:48.993Z,11.60
2023-04-02T12:47:48.998Z,12.19
2023-04-02T12:48:48.948Z,14.00
2023-04-02T12:49:48.936Z,13.30
2023-04-02T12:50:48.927Z,12.00
2023-04-02T12:52:48.908Z,10.89
2023-04-02T12:53:48.922Z,11.60
2023-04-02T12:55:48.876Z,12.10
2023-04-02T12:56:48.902Z,12.19
2023-04-02T12:57:48.854Z,10.50
2023-04-02T12:58:48.840Z,11.69
2023-04-02T12:59:48.829Z,10.19
2023-04-02T13:01:48.844Z,10.69
2023-04-02T13:02:48.872Z,11.39
2023-04-02T13:03:48.837Z,11.60
2023-04-02T13:04:48.787Z,10.10
2023-04-02T13:05:48.795Z,10.89
2023-04-02T13:07:48.753Z,10.69
2023-04-02T13:10:48.722Z,10.30
2023-04-02T13:13:03.987Z,10.19
2023-04-02T13:13:48.690Z,10.50
2023-04-02T13:14:48.681Z,9.50
2023-04-02T15:06:16.391Z,11.00
2023-04-02T15:07:44.445Z,10.60
2023-04-02T15:08:17.792Z,10.89
2023-04-02T15:34:45.466Z,11.89
2023-04-02T15:34:46.867Z,12.39
2023-04-02T15:36:46.854Z,12.80
2023-04-02T15:37:46.859Z,10.69
2023-04-02T15:38:46.828Z,11.80
2023-04-02T15:41:42.446Z,10.69
2023-04-02T15:42:43.907Z,11.60
2023-04-02T15:43:43.844Z,12.00
2023-04-02T15:44:43.832Z,12.19
2023-04-02T15:47:42.064Z,11.10
2023-04-02T15:47:43.532Z,10.60
2023-04-02T15:52:11.794Z,10.60
2023-04-02T15:58:31.334Z,11.19
2023-04-02T16:03:02.763Z,10.10
2023-04-02T16:05:33.149Z,11.69
2023-04-02T16:22:23.519Z,11.19
2023-04-02T16:24:24.917Z,10.30
2023-04-02T16:26:24.899Z,11.60
2023-04-02T16:27:24.888Z,10.00
2023-04-02T16:28:27.960Z,13.39
2023-04-02T16:31:24.884Z,10.69
2023-04-02T16:34:24.814Z,11.30
2023-04-02T16:37:24.789Z,10.60
2023-04-02T16:38:24.806Z,13.00
2023-04-02T16:39:24.772Z,12.30
2023-04-02T16:40:24.761Z,13.39
2023-04-02T16:42:24.747Z,18.50
2023-04-02T16:43:24.725Z,15.39
2023-04-02T16:44:24.721Z,12.19
2023-04-02T16:45:24.707Z,13.60
2023-04-02T16:48:24.693Z,13.69
2023-04-02T16:49:24.673Z,13.30
2023-04-02T16:52:24.635Z,15.10
2023-04-02T16:53:24.634Z,15.89
2023-04-02T16:54:24.639Z,15.50
2023-04-02T16:55:24.612Z,16.10
2023-04-02T16:58:24.574Z,18.00
2023-04-02T16:59:24.567Z,19.50
2023-04-02T17:00:24.559Z,20.29
2023-04-02T17:01:24.565Z,19.00
2023-04-02T17:02:24.612Z,21.79
2023-04-02T17:03:24.602Z,21.00
2023-04-02T17:05:24.503Z,21.10
2023-04-02T17:06:24.488Z,22.70
2023-04-02T17:10:24.474Z,21.00
2023-04-02T17:12:24.430Z,23.29
2023-04-02T17:13:24.417Z,22.29
2023-04-02T17:14:24.401Z,24.79
2023-04-02T17:18:24.372Z,21.10
2023-04-02T17:19:24.351Z,22.60
2023-04-02T17:20:24.348Z,23.20
2023-04-02T17:22:24.324Z,20.60
2023-04-02T17:23:24.309Z,22.10
2023-04-02T17:25:24.287Z,19.00
2023-04-02T17:26:24.309Z,20.00
2023-04-02T17:27:24.269Z,23.00
2023-04-02T17:28:24.256Z,21.10
2023-04-02T17:31:24.252Z,20.60
2023-04-02T17:32:24.233Z,20.70
2023-04-02T17:34:24.220Z,18.89
2023-04-02T17:35:24.216Z,23.29
2023-04-02T17:36:24.173Z,21.29
2023-04-02T17:37:24.166Z,22.39
2023-04-02T17:42:24.142Z,20.89
2023-04-02T17:43:24.102Z,22.10
2023-04-02T17:46:24.190Z,24.10
2023-04-02T17:50:24.038Z,25.50
2023-04-02T17:53:24.001Z,27.39
2023-04-02T17:54:23.986Z,25.79
2023-04-02T17:57:23.987Z,26.00
2023-04-02T18:10:23.816Z,21.60
2023-04-02T18:11:23.817Z,23.20
2023-04-02T18:12:23.803Z,22.89
2023-04-02T18:13:23.786Z,20.60
2023-04-02T18:14:23.797Z,20.79
2023-04-02T18:17:23.817Z,22.70
2023-04-02T18:21:23.710Z,23.20
2023-04-02T18:24:23.674Z,16.79
2023-04-02T18:25:23.662Z,17.20
2023-04-02T18:30:23.636Z,20.20
2023-04-02T18:31:23.617Z,18.60
2023-04-02T18:40:23.528Z,18.50
2023-04-02T18:47:23.532Z,19.00
2023-04-02T18:49:23.408Z,19.10
2023-04-02T18:52:23.372Z,18.29
2023-04-02T18:55:23.344Z,17.70
2023-04-02T18:59:23.301Z,22.70
2023-04-02T19:03:23.307Z,23.29
2023-04-02T19:08:23.211Z,23.60
2023-04-02T19:09:23.201Z,21.60
2023-04-02T19:13:23.152Z,20.20
